sensor_id;sensor_type;location;lat;lon;timestamp;P1;durP1;ratioP1;P2;durP2;ratioP2
23768;SDS011;12064;50.890;5.424;2022-12-10T00:03:56;2.88;;;2.67;;
23768;SDS011;12064;50.890;5.424;2022-12-10T00:12:47;2.90;;;2.70;;
23768;SDS011;12064;50.890;5.424;2022-12-10T00:21:42;2.80;;;2.60;;
23768;SDS011;12064;50.890;5.424;2022-12-10T00:30:34;2.75;;;2.55;;
23768;SDS011;12064;50.890;5.424;2022-12-10T00:39:26;2.60;;;2.40;;
23768;SDS011;12064;50.890;5.424;2022-12-10T00:48:32;2.88;;;2.67;;
23768;SDS011;12064;50.890;5.424;2022-12-10T00:57:35;3.00;;;2.78;;
23768;SDS011;12064;50.890;5.424;2022-12-10T01:06:48;2.80;;;2.60;;
23768;SDS011;12064;50.890;5.424;2022-12-10T01:15:40;2.75;;;2.55;;
23768;SDS011;12064;50.890;5.424;2022-12-10T01:33:28;3.03;;;2.73;;
23768;SDS011;12064;50.890;5.424;2022-12-10T01:42:19;2.88;;;2.67;;
23768;SDS011;12064;50.890;5.424;2022-12-10T02:00:27;2.80;;;2.60;;
23768;SDS011;12064;50.890;5.424;2022-12-10T02:09:20;2.90;;;2.70;;
23768;SDS011;12064;50.890;5.424;2022-12-10T02:18:24;3.28;;;3.03;;
23768;SDS011;12064;50.890;5.424;2022-12-10T02:37:00;2.90;;;2.70;;
23768;SDS011;12064;50.890;5.424;2022-12-10T02:45:57;3.15;;;2.95;;
23768;SDS011;12064;50.890;5.424;2022-12-10T02:54:52;2.90;;;2.70;;
23768;SDS011;12064;50.890;5.424;2022-12-10T03:13:17;2.70;;;2.50;;
23768;SDS011;12064;50.890;5.424;2022-12-10T03:22:14;2.78;;;2.58;;
23768;SDS011;12064;50.890;5.424;2022-12-10T03:40:05;2.90;;;2.70;;
23768;SDS011;12064;50.890;5.424;2022-12-10T03:48:59;2.72;;;2.53;;
23768;SDS011;12064;50.890;5.424;2022-12-10T03:57:50;2.95;;;2.75;;
23768;SDS011;12064;50.890;5.424;2022-12-10T04:06:45;2.80;;;2.60;;
23768;SDS011;12064;50.890;5.424;2022-12-10T04:15:37;2.60;;;2.40;;
23768;SDS011;12064;50.890;5.424;2022-12-10T04:24:47;2.80;;;2.60;;
23768;SDS011;12064;50.890;5.424;2022-12-10T04:34:20;3.00;;;2.80;;
23768;SDS011;12064;50.890;5.424;2022-12-10T04:43:12;2.70;;;2.50;;
23768;SDS011;12064;50.890;5.424;2022-12-10T04:52:10;2.63;;;2.42;;
23768;SDS011;12064;50.890;5.424;2022-12-10T05:01:02;2.45;;;2.30;;
23768;SDS011;12064;50.890;5.424;2022-12-10T05:09:54;2.70;;;2.50;;
23768;SDS011;12064;50.890;5.424;2022-12-10T05:18:48;2.78;;;2.58;;
23768;SDS011;12064;50.890;5.424;2022-12-10T05:27:39;2.53;;;2.40;;
23768;SDS011;12064;50.890;5.424;2022-12-10T05:36:38;2.53;;;2.40;;
23768;SDS011;12064;50.890;5.424;2022-12-10T05:45:29;2.72;;;2.50;;
23768;SDS011;12064;50.890;5.424;2022-12-10T05:54:22;2.60;;;2.40;;
23768;SDS011;12064;50.890;5.424;2022-12-10T06:03:13;2.83;;;2.63;;
23768;SDS011;12064;50.890;5.424;2022-12-10T06:12:18;2.50;;;2.30;;
23768;SDS011;12064;50.890;5.424;2022-12-10T06:21:11;2.67;;;2.50;;
23768;SDS011;12064;50.890;5.424;2022-12-10T06:30:03;2.75;;;2.55;;
23768;SDS011;12064;50.890;5.424;2022-12-10T06:47:54;2.87;;;2.67;;
23768;SDS011;12064;50.890;5.424;2022-12-10T06:56:45;2.22;;;2.13;;
23768;SDS011;12064;50.890;5.424;2022-12-10T07:05:37;2.57;;;2.37;;
23768;SDS011;12064;50.890;5.424;2022-12-10T07:14:29;2.70;;;2.50;;
23768;SDS011;12064;50.890;5.424;2022-12-10T07:23:20;2.40;;;2.20;;
23768;SDS011;12064;50.890;5.424;2022-12-10T07:32:11;3.42;;;3.13;;
23768;SDS011;12064;50.890;5.424;2022-12-10T07:41:03;4.03;;;3.63;;
23768;SDS011;12064;50.890;5.424;2022-12-10T07:49:55;3.70;;;3.40;;
23768;SDS011;12064;50.890;5.424;2022-12-10T07:58:45;3.53;;;3.20;;
23768;SDS011;12064;50.890;5.424;2022-12-10T08:07:36;3.13;;;2.83;;
23768;SDS011;12064;50.890;5.424;2022-12-10T08:16:27;3.17;;;2.87;;
23768;SDS011;12064;50.890;5.424;2022-12-10T08:25:19;3.58;;;3.17;;
23768;SDS011;12064;50.890;5.424;2022-12-10T08:34:14;3.97;;;3.27;;
23768;SDS011;12064;50.890;5.424;2022-12-10T08:43:07;3.20;;;3.00;;
23768;SDS011;12064;50.890;5.424;2022-12-10T08:51:58;3.50;;;3.20;;
23768;SDS011;12064;50.890;5.424;2022-12-10T09:00:49;3.00;;;2.80;;
23768;SDS011;12064;50.890;5.424;2022-12-10T09:09:40;3.40;;;3.10;;
23768;SDS011;12064;50.890;5.424;2022-12-10T09:18:30;3.03;;;2.73;;
23768;SDS011;12064;50.890;5.424;2022-12-10T09:27:21;3.35;;;3.05;;
23768;SDS011;12064;50.890;5.424;2022-12-10T09:36:12;3.33;;;3.03;;
23768;SDS011;12064;50.890;5.424;2022-12-10T09:45:16;3.20;;;2.92;;
23768;SDS011;12064;50.890;5.424;2022-12-10T09:54:26;3.45;;;2.90;;
23768;SDS011;12064;50.890;5.424;2022-12-10T10:03:21;2.90;;;2.70;;
23768;SDS011;12064;50.890;5.424;2022-12-10T10:12:18;2.92;;;2.70;;
23768;SDS011;12064;50.890;5.424;2022-12-10T10:21:13;3.25;;;3.00;;
23768;SDS011;12064;50.890;5.424;2022-12-10T10:48:14;3.30;;;3.00;;
23768;SDS011;12064;50.890;5.424;2022-12-10T11:06:32;3.25;;;2.97;;
23768;SDS011;12064;50.890;5.424;2022-12-10T11:34:13;3.08;;;2.83;;
23768;SDS011;12064;50.890;5.424;2022-12-10T12:10:37;3.25;;;3.00;;
23768;SDS011;12064;50.890;5.424;2022-12-10T12:38:28;3.20;;;2.90;;
23768;SDS011;12064;50.890;5.424;2022-12-10T13:05:49;3.20;;;2.90;;
23768;SDS011;12064;50.890;5.424;2022-12-10T13:23:51;2.83;;;2.63;;
23768;SDS011;12064;50.890;5.424;2022-12-10T13:32:46;2.97;;;2.78;;
23768;SDS011;12064;50.890;5.424;2022-12-10T13:41:41;3.47;;;3.17;;
23768;SDS011;12064;50.890;5.424;2022-12-10T13:51:22;2.88;;;2.67;;
23768;SDS011;12064;50.890;5.424;2022-12-10T14:00:18;3.17;;;2.88;;
23768;SDS011;12064;50.890;5.424;2022-12-10T14:09:14;2.88;;;2.63;;
23768;SDS011;12064;50.890;5.424;2022-12-10T14:18:10;2.97;;;2.77;;
23768;SDS011;12064;50.890;5.424;2022-12-10T14:27:20;3.30;;;3.00;;
23768;SDS011;12064;50.890;5.424;2022-12-10T14:36:28;3.20;;;2.90;;
23768;SDS011;12064;50.890;5.424;2022-12-10T14:45:31;3.10;;;2.90;;
23768;SDS011;12064;50.890;5.424;2022-12-10T14:54:46;3.30;;;3.00;;
23768;SDS011;12064;50.890;5.424;2022-12-10T15:03:43;3.20;;;2.90;;
23768;SDS011;12064;50.890;5.424;2022-12-10T15:12:37;2.97;;;2.75;;
23768;SDS011;12064;50.890;5.424;2022-12-10T15:21:40;3.67;;;3.37;;
23768;SDS011;12064;50.890;5.424;2022-12-10T15:30:34;3.40;;;3.15;;
23768;SDS011;12064;50.890;5.424;2022-12-10T15:39:30;3.20;;;3.00;;
23768;SDS011;12064;50.890;5.424;2022-12-10T15:48:30;3.00;;;2.80;;
23768;SDS011;12064;50.890;5.424;2022-12-10T15:57:22;3.30;;;3.00;;
23768;SDS011;12064;50.890;5.424;2022-12-10T16:06:20;3.15;;;2.95;;
23768;SDS011;12064;50.890;5.424;2022-12-10T16:15:15;3.87;;;3.03;;
23768;SDS011;12064;50.890;5.424;2022-12-10T16:24:10;3.58;;;3.28;;
23768;SDS011;12064;50.890;5.424;2022-12-10T16:33:01;3.13;;;2.90;;
23768;SDS011;12064;50.890;5.424;2022-12-10T16:42:08;3.50;;;3.20;;
23768;SDS011;12064;50.890;5.424;2022-12-10T16:51:01;3.63;;;3.33;;
23768;SDS011;12064;50.890;5.424;2022-12-10T16:59:52;3.60;;;3.30;;
23768;SDS011;12064;50.890;5.424;2022-12-10T17:08:42;3.90;;;3.40;;
23768;SDS011;12064;50.890;5.424;2022-12-10T17:17:36;3.92;;;3.63;;
23768;SDS011;12064;50.890;5.424;2022-12-10T17:26:44;3.70;;;3.40;;
23768;SDS011;12064;50.890;5.424;2022-12-10T17:35:37;3.40;;;3.10;;
23768;SDS011;12064;50.890;5.424;2022-12-10T17:53:48;3.80;;;3.50;;
23768;SDS011;12064;50.890;5.424;2022-12-10T18:02:39;3.90;;;3.60;;
23768;SDS011;12064;50.890;5.424;2022-12-10T18:11:31;3.80;;;3.50;;
23768;SDS011;12064;50.890;5.424;2022-12-10T18:20:34;3.85;;;3.55;;
23768;SDS011;12064;50.890;5.424;2022-12-10T18:29:36;4.35;;;3.83;;
23768;SDS011;12064;50.890;5.424;2022-12-10T18:38:27;4.15;;;3.70;;
23768;SDS011;12064;50.890;5.424;2022-12-10T18:47:20;4.10;;;3.80;;
23768;SDS011;12064;50.890;5.424;2022-12-10T18:56:20;3.77;;;3.47;;
23768;SDS011;12064;50.890;5.424;2022-12-10T19:05:19;3.97;;;3.67;;
23768;SDS011;12064;50.890;5.424;2022-12-10T19:14:10;3.50;;;3.20;;
23768;SDS011;12064;50.890;5.424;2022-12-10T19:31:54;3.80;;;3.50;;
23768;SDS011;12064;50.890;5.424;2022-12-10T19:40:45;4.13;;;3.70;;
23768;SDS011;12064;50.890;5.424;2022-12-10T19:49:36;3.80;;;3.50;;
23768;SDS011;12064;50.890;5.424;2022-12-10T19:58:26;3.88;;;3.47;;
23768;SDS011;12064;50.890;5.424;2022-12-10T20:07:17;3.57;;;3.27;;
23768;SDS011;12064;50.890;5.424;2022-12-10T20:16:13;3.65;;;3.35;;
23768;SDS011;12064;50.890;5.424;2022-12-10T20:25:15;4.28;;;3.45;;
23768;SDS011;12064;50.890;5.424;2022-12-10T20:34:09;3.80;;;3.47;;
23768;SDS011;12064;50.890;5.424;2022-12-10T20:43:00;3.85;;;3.53;;
23768;SDS011;12064;50.890;5.424;2022-12-10T20:51:50;4.03;;;3.63;;
23768;SDS011;12064;50.890;5.424;2022-12-10T21:00:42;3.72;;;3.42;;
23768;SDS011;12064;50.890;5.424;2022-12-10T21:09:35;3.45;;;3.15;;
23768;SDS011;12064;50.890;5.424;2022-12-10T21:18:26;3.63;;;3.33;;
23768;SDS011;12064;50.890;5.424;2022-12-10T21:27:19;3.60;;;3.30;;
23768;SDS011;12064;50.890;5.424;2022-12-10T21:36:17;3.33;;;3.03;;
23768;SDS011;12064;50.890;5.424;2022-12-10T21:45:11;3.47;;;3.17;;
23768;SDS011;12064;50.890;5.424;2022-12-10T21:54:02;3.97;;;3.53;;
23768;SDS011;12064;50.890;5.424;2022-12-10T22:02:53;3.85;;;3.53;;
23768;SDS011;12064;50.890;5.424;2022-12-10T22:11:44;3.67;;;3.38;;
23768;SDS011;12064;50.890;5.424;2022-12-10T22:20:39;3.97;;;3.57;;
23768;SDS011;12064;50.890;5.424;2022-12-10T22:29:29;3.70;;;3.40;;
23768;SDS011;12064;50.890;5.424;2022-12-10T22:38:23;3.67;;;3.38;;
23768;SDS011;12064;50.890;5.424;2022-12-10T22:47:14;3.60;;;3.30;;
23768;SDS011;12064;50.890;5.424;2022-12-10T22:56:06;3.35;;;3.05;;
23768;SDS011;12064;50.890;5.424;2022-12-10T23:04:57;3.58;;;3.28;;
23768;SDS011;12064;50.890;5.424;2022-12-10T23:13:49;3.70;;;3.40;;
23768;SDS011;12064;50.890;5.424;2022-12-10T23:22:40;3.60;;;3.30;;
23768;SDS011;12064;50.890;5.424;2022-12-10T23:31:38;3.47;;;3.17;;
23768;SDS011;12064;50.890;5.424;2022-12-10T23:40:29;3.58;;;3.28;;
23768;SDS011;12064;50.890;5.424;2022-12-10T23:49:20;3.30;;;3.00;;
23768;SDS011;12064;50.890;5.424;2022-12-10T23:58:12;3.83;;;2.92;;
